Time;durP1;ratioP1;P1;durP2;ratioP2;P2;SDS_P1;SDS_P2;PMS_P1;PMS_P2;Temp;Humidity;BMP_temperature;BMP_pressure;BME280_temperature;BME280_humidity;BME280_pressure;Samples;Min_cycle;Max_cycle;Signal;HPM_P1;HPM_P2
2022/10/19 00:01:14;;;;;;;13.50;6.73;;;7.60;99.90;;;;;;5023112;28;20223;-66
2022/10/19 00:03:42;;;;;;;8.90;5.50;;;7.60;99.90;;;;;;5035755;28;20246;-65
2022/10/19 00:06:24;;;;;;;12.67;5.43;;;7.60;99.90;;;;;;5034616;28;20287;-66
2022/10/19 00:08:52;;;;;;;10.73;6.33;;;7.60;99.90;;;;;;5022199;28;20292;-66
2022/10/19 00:11:20;;;;;;;9.73;6.33;;;7.50;99.90;;;;;;5017982;28;20415;-67
2022/10/19 00:13:47;;;;;;;14.13;6.57;;;7.50;99.90;;;;;;5018086;28;20675;-66
2022/10/19 00:16:16;;;;;;;10.23;6.17;;;7.40;81.30;;;;;;5035350;28;20195;-67
2022/10/19 00:18:44;;;;;;;9.37;6.07;;;7.40;51.70;;;;;;5037104;28;20659;-66
2022/10/19 00:21:14;;;;;;;9.70;6.63;;;7.40;19.40;;;;;;5022435;28;20209;-66
2022/10/19 00:23:41;;;;;;;11.03;6.00;;;7.40;1.00;;;;;;5022980;28;20749;-67
2022/10/19 00:26:09;;;;;;;9.60;5.90;;;7.40;1.00;;;;;;5006017;28;20264;-65
2022/10/19 00:28:36;;;;;;;10.57;6.53;;;7.30;1.00;;;;;;5035286;28;20205;-65
2022/10/19 00:31:07;;;;;;;9.63;5.87;;;7.30;1.00;;;;;;5037353;28;20282;-70
2022/10/19 00:33:34;;;;;;;10.30;5.90;;;7.20;1.00;;;;;;5039058;28;20202;-70
2022/10/19 00:36:02;;;;;;;8.13;5.70;;;7.20;13.90;;;;;;5025743;28;20223;-67
2022/10/19 00:38:30;;;;;;;11.13;5.80;;;7.20;58.40;;;;;;5034196;28;20826;-64
2022/10/19 00:40:57;;;;;;;10.17;5.73;;;7.20;50.70;;;;;;5028456;28;20195;-64
2022/10/19 00:43:26;;;;;;;7.93;5.47;;;7.10;84.30;;;;;;5025195;28;20295;-65
2022/10/19 00:45:53;;;;;;;13.67;6.47;;;7.10;12.40;;;;;;5038018;28;20235;-64
2022/10/19 00:48:26;;;;;;;9.43;5.37;;;7.10;70.50;;;;;;5036409;28;20445;-65
2022/10/19 00:50:57;;;;;;;10.67;5.23;;;7.00;1.00;;;;;;5038583;28;20281;-66
2022/10/19 00:53:27;;;;;;;7.60;4.60;;;7.10;91.30;;;;;;5004001;28;20200;-70
2022/10/19 00:55:54;;;;;;;4.33;3.93;;;7.10;99.90;;;;;;5024066;28;20249;-69
2022/10/19 00:58:22;;;;;;;5.50;3.63;;;7.10;99.90;;;;;;5036736;28;20291;-71
2022/10/19 01:00:49;;;;;;;9.97;3.80;;;7.10;99.90;;;;;;5021539;28;20204;-72
2022/10/19 01:03:15;;;;;;;8.07;4.00;;;7.00;99.90;;;;;;5019043;28;20202;-70
2022/10/19 01:05:43;;;;;;;16.23;4.37;;;6.90;99.90;;;;;;5036720;28;20188;-71
2022/10/19 01:08:11;;;;;;;7.70;4.40;;;6.90;99.90;;;;;;5026567;28;20319;-71
2022/10/19 01:10:53;;;;;;;11.83;4.70;;;6.90;99.90;;;;;;5036892;28;20205;-70
2022/10/19 01:13:29;;;;;;;7.30;4.77;;;6.90;99.90;;;;;;5018219;28;20192;-70
2022/10/19 01:16:06;;;;;;;10.27;4.00;;;6.80;96.20;;;;;;5031529;28;21379;-71
2022/10/19 01:18:33;;;;;;;8.23;4.73;;;6.80;1.40;;;;;;5025577;28;20202;-70
2022/10/19 01:21:23;;;;;;;7.60;4.67;;;6.80;99.90;;;;;;5026062;28;20200;-74
2022/10/19 01:24:36;;;;;;;10.93;5.37;;;6.80;99.90;;;;;;5026939;28;20570;-73
2022/10/19 01:27:22;;;;;;;8.13;5.37;;;6.80;56.00;;;;;;5034189;28;20203;-73
2022/10/19 01:30:21;;;;;;;9.03;5.27;;;6.70;1.00;;;;;;5032356;28;20198;-74
2022/10/19 01:33:14;;;;;;;12.00;5.47;;;6.70;1.00;;;;;;5022036;28;20311;-73
2022/10/19 01:36:06;;;;;;;11.20;6.07;;;6.70;1.00;;;;;;5026735;28;20697;-73
2022/10/19 01:38:49;;;;;;;8.03;5.33;;;6.60;1.00;;;;;;5019356;28;20234;-74
2022/10/19 01:41:24;;;;;;;8.43;4.97;;;6.70;60.50;;;;;;5014020;28;20195;-70
2022/10/19 01:44:16;;;;;;;10.10;4.70;;;6.80;99.90;;;;;;5035155;28;20201;-72
2022/10/19 01:46:49;;;;;;;7.87;4.87;;;7.00;99.90;;;;;;5018898;28;20200;-73
2022/10/19 01:49:24;;;;;;;10.23;5.97;;;7.30;1.00;;;;;;5018696;28;20189;-71
2022/10/19 01:51:57;;;;;;;7.90;5.27;;;7.60;1.00;;;;;;5032546;28;20286;-74
2022/10/19 01:54:29;;;;;;;10.67;7.10;;;7.60;1.00;;;;;;5028580;28;20193;-74
2022/10/19 01:56:58;;;;;;;7.73;5.80;;;7.60;1.00;;;;;;5029153;28;20195;-71
2022/10/19 01:59:26;;;;;;;13.83;7.07;;;7.70;99.90;;;;;;5030200;28;20193;-74
2022/10/19 02:01:54;;;;;;;6.77;5.53;;;7.60;99.90;;;;;;5015484;28;20196;-72
2022/10/19 02:04:26;;;;;;;11.90;7.40;;;7.60;99.90;;;;;;5014482;28;20194;-72
2022/10/19 02:06:54;;;;;;;12.53;8.77;;;7.70;99.90;;;;;;5022463;28;20543;-69
2022/10/19 02:09:21;;;;;;;7.43;5.60;;;7.70;1.00;;;;;;5030677;28;20186;-71
2022/10/19 02:11:55;;;;;;;12.70;8.13;;;7.80;1.00;;;;;;5034798;28;20584;-68
2022/10/19 02:14:31;;;;;;;13.10;9.43;;;7.80;1.00;;;;;;5012661;28;20265;-65
2022/10/19 02:17:11;;;;;;;10.20;7.60;;;7.70;99.90;;;;;;5028815;28;20249;-64
2022/10/19 02:19:38;;;;;;;13.40;7.40;;;7.60;1.00;;;;;;5011218;28;20307;-64
2022/10/19 02:22:06;;;;;;;10.70;5.60;;;7.50;1.00;;;;;;5033684;28;20220;-65
2022/10/19 02:24:33;;;;;;;10.00;7.13;;;7.40;1.00;;;;;;5021914;28;20188;-66
2022/10/19 02:27:03;;;;;;;9.37;6.47;;;7.30;1.00;;;;;;5004092;28;20276;-66
2022/10/19 02:29:32;;;;;;;10.00;6.37;;;7.20;99.90;;;;;;5027810;28;20243;-63
2022/10/19 02:32:00;;;;;;;16.23;9.53;;;7.10;99.90;;;;;;5015132;28;20266;-64
2022/10/19 02:34:27;;;;;;;16.47;10.50;;;7.00;99.90;;;;;;5018538;28;20219;-65
2022/10/19 02:36:55;;;;;;;11.23;4.70;;;6.90;1.00;;;;;;5031990;28;20215;-64
2022/10/19 02:39:22;;;;;;;7.10;4.77;;;6.80;1.00;;;;;;5018271;28;21532;-64
2022/10/19 02:42:31;;;;;;;7.00;5.33;;;6.90;1.00;;;;;;5018555;28;20200;-64
2022/10/19 02:45:06;;;;;;;5.37;4.07;;;7.00;99.90;;;;;;4951438;28;20221;-66
2022/10/19 02:48:03;;;;;;;9.53;4.70;;;6.90;99.90;;;;;;4950355;28;20228;-64
2022/10/19 02:50:30;;;;;;;8.47;4.93;;;6.90;99.90;;;;;;4994280;28;20195;-63
2022/10/19 02:53:00;;;;;;;8.97;5.03;;;6.90;99.90;;;;;;5031295;28;20647;-63
2022/10/19 02:55:29;;;;;;;6.43;4.10;;;6.90;99.90;;;;;;5020247;28;20278;-62
2022/10/19 02:57:56;;;;;;;6.37;4.63;;;6.90;99.90;;;;;;5032470;28;20191;-61
2022/10/19 03:00:24;;;;;;;6.10;4.17;;;6.90;1.00;;;;;;5030251;28;20285;-63
2022/10/19 03:02:50;;;;;;;8.67;4.10;;;6.80;1.00;;;;;;5018380;28;20231;-64
2022/10/19 03:05:17;;;;;;;8.27;4.20;;;6.80;1.00;;;;;;5021418;28;20246;-64
2022/10/19 03:07:44;;;;;;;9.83;6.93;;;6.80;1.00;;;;;;5019985;28;20243;-65
2022/10/19 03:10:11;;;;;;;6.87;4.00;;;6.80;1.00;;;;;;5030845;28;20220;-63
2022/10/19 03:12:38;;;;;;;6.67;3.70;;;6.90;1.00;;;;;;5005355;28;20206;-65
2022/10/19 03:15:06;;;;;;;10.67;4.40;;;6.90;1.00;;;;;;5031517;28;20200;-62
2022/10/19 03:17:33;;;;;;;8.20;6.07;;;6.90;1.00;;;;;;5020242;28;20204;-65
2022/10/19 03:20:00;;;;;;;6.93;4.40;;;6.90;1.00;;;;;;5032106;28;20670;-63
2022/10/19 03:22:27;;;;;;;12.60;7.13;;;6.80;1.00;;;;;;5016813;28;20235;-63
2022/10/19 03:24:54;;;;;;;12.93;5.80;;;6.80;16.50;;;;;;5031862;28;20263;-62
2022/10/19 03:27:21;;;;;;;9.07;4.17;;;6.90;99.90;;;;;;5030499;28;20330;-65
2022/10/19 03:29:48;;;;;;;7.80;4.03;;;6.90;99.90;;;;;;5013868;28;20196;-63
2022/10/19 03:32:15;;;;;;;12.43;4.50;;;6.90;99.90;;;;;;5018426;28;20211;-62
2022/10/19 03:34:42;;;;;;;12.53;5.57;;;6.90;99.90;;;;;;5024045;28;20208;-62
2022/10/19 03:37:09;;;;;;;9.20;4.60;;;6.90;76.20;;;;;;5030347;28;20328;-63
2022/10/19 03:39:36;;;;;;;10.00;4.70;;;6.80;1.00;;;;;;5021562;28;20231;-63
2022/10/19 03:42:03;;;;;;;14.87;4.50;;;6.70;1.00;;;;;;5038341;28;20196;-65
2022/10/19 03:44:30;;;;;;;6.30;4.77;;;6.70;1.00;;;;;;5007124;28;20220;-63
2022/10/19 03:46:57;;;;;;;11.90;5.27;;;6.60;1.00;;;;;;5022468;28;20693;-63
2022/10/19 03:49:24;;;;;;;7.80;5.07;;;6.60;1.00;;;;;;5026890;28;20212;-63
2022/10/19 03:51:51;;;;;;;9.87;5.23;;;6.50;1.00;;;;;;5020897;28;20669;-63
2022/10/19 03:54:18;;;;;;;10.03;5.07;;;6.50;1.00;;;;;;5023854;28;20190;-63
2022/10/19 03:56:49;;;;;;;10.97;4.60;;;6.50;67.50;;;;;;5023049;28;20297;-63
2022/10/19 03:59:16;;;;;;;10.73;5.33;;;6.40;99.90;;;;;;5034179;28;20203;-64
2022/10/19 04:01:45;;;;;;;8.77;6.10;;;6.30;99.90;;;;;;5010276;28;20208;-64
2022/10/19 04:04:15;;;;;;;11.30;5.97;;;6.30;99.90;;;;;;5021852;28;20211;-62
2022/10/19 04:06:45;;;;;;;11.23;5.17;;;6.30;99.90;;;;;;5033754;28;20287;-63
2022/10/19 04:09:15;;;;;;;10.67;5.13;;;6.20;99.90;;;;;;5033619;28;20207;-64
2022/10/19 04:11:42;;;;;;;7.80;4.93;;;6.10;1.00;;;;;;5026688;28;20206;-63
2022/10/19 04:14:11;;;;;;;9.03;6.37;;;6.20;1.00;;;;;;5022075;28;20664;-64
2022/10/19 04:16:52;;;;;;;10.83;5.20;;;6.20;1.00;;;;;;5034118;28;20184;-65
2022/10/19 04:19:19;;;;;;;8.47;6.00;;;6.30;1.00;;;;;;5023813;28;20210;-62
2022/10/19 04:21:48;;;;;;;10.63;5.07;;;6.20;1.00;;;;;;5023425;28;20235;-65
2022/10/19 04:24:17;;;;;;;10.13;5.43;;;6.20;1.00;;;;;;5035810;28;20207;-66
2022/10/19 04:26:50;;;;;;;10.47;8.23;;;6.20;1.00;;;;;;5038674;28;20199;-65
2022/10/19 04:29:19;;;;;;;9.57;7.10;;;6.10;99.90;;;;;;5021918;28;20714;-64
2022/10/19 04:31:51;;;;;;;8.13;6.27;;;6.10;1.00;;;;;;5040939;28;20682;-63
2022/10/19 04:34:18;;;;;;;5.90;5.30;;;6.00;1.00;;;;;;5030432;28;20927;-63
2022/10/19 04:36:45;;;;;;;7.97;5.17;;;6.00;1.00;;;;;;5040516;28;20220;-64
2022/10/19 04:39:12;;;;;;;10.70;4.57;;;6.00;99.90;;;;;;5021523;28;20466;-63
2022/10/19 04:41:39;;;;;;;9.73;5.40;;;6.00;99.90;;;;;;5023664;28;20207;-63
2022/10/19 04:44:06;;;;;;;8.07;5.20;;;5.80;99.90;;;;;;5040358;28;20226;-63
2022/10/19 04:46:34;;;;;;;9.90;5.17;;;5.90;99.90;;;;;;5022097;28;20196;-62
2022/10/19 04:49:03;;;;;;;11.43;5.30;;;6.30;1.00;;;;;;5037217;28;20201;-63
2022/10/19 04:51:30;;;;;;;8.50;4.80;;;5.80;1.00;;;;;;5042204;28;20238;-64
2022/10/19 04:53:57;;;;;;;8.77;4.63;;;5.70;1.00;;;;;;5024116;28;20199;-63
2022/10/19 04:56:26;;;;;;;7.63;4.87;;;5.60;1.00;;;;;;5040788;28;20206;-66
2022/10/19 04:58:58;;;;;;;7.77;5.20;;;5.60;1.00;;;;;;5022379;28;20202;-66
2022/10/19 05:01:27;;;;;;;8.50;4.23;;;5.70;1.00;;;;;;5039161;28;20658;-64
2022/10/19 05:03:59;;;;;;;15.43;4.90;;;5.80;1.00;;;;;;5021198;28;20204;-64
2022/10/19 05:06:27;;;;;;;10.97;4.27;;;6.80;99.90;;;;;;5028987;28;20262;-63
2022/10/19 05:08:55;;;;;;;5.83;4.37;;;6.50;95.30;;;;;;5020100;28;20702;-63
2022/10/19 05:11:22;;;;;;;7.23;4.60;;;6.20;1.00;;;;;;5023393;28;20191;-63
2022/10/19 05:13:50;;;;;;;6.10;4.73;;;6.00;99.90;;;;;;5022747;28;20202;-63
2022/10/19 05:16:19;;;;;;;9.17;5.10;;;5.90;99.90;;;;;;5030348;28;20196;-65
2022/10/19 05:18:48;;;;;;;11.23;7.47;;;5.70;99.90;;;;;;5035042;28;20200;-64
2022/10/19 05:21:15;;;;;;;8.77;6.20;;;5.70;99.90;;;;;;5025583;28;20730;-65
2022/10/19 05:23:42;;;;;;;9.03;5.53;;;5.60;99.90;;;;;;5037513;28;20278;-66
2022/10/19 05:26:18;;;;;;;8.37;5.30;;;5.50;99.90;;;;;;5038443;28;20545;-65
2022/10/19 05:28:50;;;;;;;7.47;5.07;;;5.50;99.90;;;;;;5036256;28;20517;-62
2022/10/19 05:31:19;;;;;;;6.33;4.50;;;5.50;99.90;;;;;;5009976;28;20212;-62
2022/10/19 05:33:46;;;;;;;9.43;4.97;;;5.50;99.90;;;;;;5036607;28;20207;-65
2022/10/19 05:36:18;;;;;;;5.27;4.47;;;5.50;99.90;;;;;;5022842;28;20750;-63
2022/10/19 05:38:48;;;;;;;5.90;5.07;;;5.40;99.90;;;;;;5008849;28;20241;-63
2022/10/19 05:41:16;;;;;;;6.37;4.60;;;5.40;1.00;;;;;;5019555;28;20202;-62
2022/10/19 05:43:45;;;;;;;6.77;4.73;;;5.50;1.00;;;;;;5019238;28;20564;-63
2022/10/19 05:46:16;;;;;;;6.50;5.10;;;5.60;1.00;;;;;;5018105;28;20209;-65
2022/10/19 05:48:44;;;;;;;6.37;4.37;;;5.60;1.00;;;;;;5022411;28;20750;-64
2022/10/19 05:51:15;;;;;;;8.80;5.77;;;5.70;1.00;;;;;;5037001;28;20251;-64
2022/10/19 05:53:42;;;;;;;10.07;7.77;;;6.00;1.00;;;;;;5035401;28;20219;-64
2022/10/19 05:56:17;;;;;;;10.30;6.17;;;6.20;1.00;;;;;;5035922;28;20196;-64
2022/10/19 05:58:44;;;;;;;11.70;7.23;;;6.30;1.00;;;;;;5019580;28;20203;-66
2022/10/19 06:01:12;;;;;;;11.07;6.63;;;6.40;99.90;;;;;;5020375;28;20231;-64
2022/10/19 06:03:40;;;;;;;22.17;9.67;;;6.40;1.00;;;;;;5002503;28;20195;-66
2022/10/19 06:06:08;;;;;;;34.13;20.33;;;6.30;1.00;;;;;;5018869;28;20204;-65
2022/10/19 06:08:36;;;;;;;30.93;18.83;;;6.40;1.00;;;;;;5036373;28;20207;-64
2022/10/19 06:11:14;;;;;;;17.07;10.60;;;6.40;1.00;;;;;;5019676;28;20187;-66
2022/10/19 06:13:43;;;;;;;15.83;10.00;;;6.40;1.00;;;;;;5022456;28;20645;-64
2022/10/19 06:16:11;;;;;;;11.87;7.17;;;6.50;1.00;;;;;;5036108;28;20785;-63
2022/10/19 06:18:39;;;;;;;9.47;6.67;;;6.50;1.00;;;;;;5021208;28;20198;-66
2022/10/19 06:21:11;;;;;;;13.20;7.27;;;6.50;1.00;;;;;;5021214;28;20200;-64
2022/10/19 06:23:38;;;;;;;22.17;12.07;;;6.50;1.00;;;;;;5001293;28;20222;-62
2022/10/19 06:26:08;;;;;;;18.93;11.37;;;6.60;1.00;;;;;;5018032;28;20686;-64
2022/10/19 06:28:37;;;;;;;19.50;11.23;;;6.70;1.00;;;;;;5036927;28;20644;-63
2022/10/19 06:31:04;;;;;;;20.27;11.73;;;6.80;1.00;;;;;;5025514;28;20187;-63
2022/10/19 06:33:35;;;;;;;15.13;9.40;;;6.90;1.00;;;;;;5019939;28;20192;-63
2022/10/19 06:36:20;;;;;;;20.87;9.73;;;7.00;1.00;;;;;;5037126;28;20316;-63
2022/10/19 06:38:48;;;;;;;13.87;7.90;;;7.00;99.90;;;;;;5006751;28;20802;-64
2022/10/19 06:41:15;;;;;;;13.17;7.07;;;7.10;99.90;;;;;;5015881;28;20224;-64
2022/10/19 06:43:43;;;;;;;12.87;7.40;;;7.10;99.90;;;;;;5034138;28;20655;-63
2022/10/19 06:46:14;;;;;;;10.93;7.17;;;7.30;99.90;;;;;;5033680;28;20207;-64
2022/10/19 06:48:41;;;;;;;10.47;7.67;;;7.40;99.90;;;;;;5033426;28;20789;-65
2022/10/19 06:51:08;;;;;;;11.87;8.80;;;7.50;99.90;;;;;;5018205;28;20326;-63
2022/10/19 06:53:36;;;;;;;13.87;8.23;;;7.50;76.50;;;;;;5024175;28;20192;-62
2022/10/19 06:56:05;;;;;;;13.10;8.97;;;7.50;99.90;;;;;;5038650;28;20219;-62
2022/10/19 06:58:36;;;;;;;14.43;8.13;;;7.50;99.90;;;;;;5009186;28;20203;-63
2022/10/19 07:01:08;;;;;;;11.47;6.17;;;7.60;99.90;;;;;;5018414;28;20764;-66
2022/10/19 07:03:35;;;;;;;10.87;5.87;;;7.80;99.90;;;;;;5019213;28;20535;-64
2022/10/19 07:06:07;;;;;;;9.13;5.73;;;8.00;29.20;;;;;;5018414;28;20318;-66
2022/10/19 07:08:36;;;;;;;9.50;5.67;;;8.10;1.00;;;;;;5036100;28;20269;-63
2022/10/19 07:11:07;;;;;;;8.13;5.17;;;8.30;1.00;;;;;;5017791;28;20196;-66
2022/10/19 07:13:34;;;;;;;10.50;4.90;;;8.60;1.00;;;;;;5016707;28;20183;-65
2022/10/19 07:16:07;;;;;;;10.13;5.23;;;8.80;95.30;;;;;;5019671;28;20199;-64
2022/10/19 07:18:36;;;;;;;9.73;6.33;;;9.00;1.00;;;;;;5011788;28;20200;-65
2022/10/19 07:21:06;;;;;;;6.60;5.03;;;9.20;1.00;;;;;;5035017;28;20607;-67
2022/10/19 07:23:35;;;;;;;9.47;4.37;;;9.60;1.00;;;;;;5021703;28;20303;-67
2022/10/19 07:26:10;;;;;;;7.13;3.90;;;9.70;1.00;;;;;;5035449;28;20286;-66
2022/10/19 07:28:39;;;;;;;10.23;4.40;;;9.90;99.90;;;;;;5033844;28;20204;-64
2022/10/19 07:31:09;;;;;;;7.40;4.60;;;9.90;99.90;;;;;;5025943;28;20196;-64
2022/10/19 07:33:36;;;;;;;10.47;4.93;;;10.10;99.90;;;;;;5023029;28;20192;-64
2022/10/19 07:36:06;;;;;;;11.27;5.83;;;10.20;99.90;;;;;;5017865;28;20453;-67
2022/10/19 07:38:34;;;;;;;11.13;5.17;;;10.30;99.90;;;;;;5007436;28;20778;-66
2022/10/19 07:41:08;;;;;;;12.77;6.10;;;10.20;99.90;;;;;;5030849;28;20251;-64
2022/10/19 07:43:35;;;;;;;15.77;6.53;;;10.20;99.90;;;;;;5007332;28;20291;-64
2022/10/19 07:46:07;;;;;;;9.53;6.17;;;10.40;99.90;;;;;;5023508;28;20220;-64
2022/10/19 07:48:35;;;;;;;9.07;5.20;;;10.60;99.90;;;;;;5024254;28;20282;-64
2022/10/19 07:51:04;;;;;;;14.57;6.40;;;11.00;99.90;;;;;;5032335;28;20933;-65
2022/10/19 07:53:31;;;;;;;10.13;5.47;;;11.10;99.90;;;;;;5034384;28;20199;-65
2022/10/19 07:56:06;;;;;;;11.30;5.87;;;11.20;99.90;;;;;;5036634;28;20199;-64
2022/10/19 07:58:35;;;;;;;6.87;4.83;;;11.20;99.90;;;;;;5022724;28;20207;-67
2022/10/19 08:01:07;;;;;;;9.87;6.00;;;11.60;99.90;;;;;;5036156;28;20220;-62
2022/10/19 08:03:35;;;;;;;9.33;6.93;;;11.90;61.90;;;;;;5034570;28;20385;-65
2022/10/19 08:06:23;;;;;;;9.20;5.07;;;11.60;99.90;;;;;;5010631;28;20189;-63
2022/10/19 08:08:51;;;;;;;11.60;6.87;;;11.40;99.90;;;;;;5035876;28;20216;-63
2022/10/19 08:11:30;;;;;;;11.03;7.07;;;11.40;99.90;;;;;;5034531;28;20197;-64
2022/10/19 08:13:58;;;;;;;10.67;6.47;;;11.50;99.90;;;;;;5035763;28;20196;-64
2022/10/19 08:16:40;;;;;;;10.37;6.83;;;11.60;99.90;;;;;;5023271;28;20746;-62
2022/10/19 08:19:10;;;;;;;10.73;7.00;;;11.80;99.90;;;;;;5017358;28;20283;-64
2022/10/19 08:21:38;;;;;;;18.73;6.47;;;11.80;99.90;;;;;;5019587;28;20216;-64
2022/10/19 08:24:06;;;;;;;9.80;7.23;;;12.10;99.90;;;;;;5033345;28;20207;-63
2022/10/19 08:26:37;;;;;;;10.80;5.03;;;12.10;99.90;;;;;;5034752;28;20236;-62
2022/10/19 08:29:15;;;;;;;10.00;4.67;;;12.20;99.90;;;;;;5004751;28;20328;-63
2022/10/19 08:31:43;;;;;;;6.60;4.70;;;13.00;99.90;;;;;;5035760;28;20223;-64
2022/10/19 08:34:11;;;;;;;8.80;4.33;;;13.90;16.10;;;;;;5034710;28;20189;-62
2022/10/19 08:36:39;;;;;;;7.60;5.30;;;14.00;1.00;;;;;;5025355;28;20234;-63
2022/10/19 08:39:12;;;;;;;11.52;7.65;;;14.10;1.00;;;;;;5024271;28;20325;-63
2022/10/19 08:41:38;;;;;;;11.88;7.30;;;14.00;1.00;;;;;;5036312;28;20196;-64
2022/10/19 08:44:26;;;;;;;14.30;7.45;;;14.60;1.00;;;;;;5039799;28;20191;-63
2022/10/19 08:47:23;;;;;;;10.00;7.30;;;15.20;1.00;;;;;;5037920;28;20191;-62
2022/10/19 08:49:50;;;;;;;13.93;6.53;;;17.70;1.00;;;;;;5023377;28;20839;-64
2022/10/19 08:52:29;;;;;;;8.48;6.28;;;21.90;1.00;;;;;;5038548;28;20223;-64
2022/10/19 08:55:07;;;;;;;9.20;6.20;;;23.30;1.00;;;;;;5028354;28;20195;-63
2022/10/19 08:58:18;;;;;;;9.50;6.22;;;23.30;1.00;;;;;;5033731;28;20751;-65
2022/10/19 09:01:06;;;;;;;14.30;6.90;;;22.70;1.00;;;;;;5035137;28;20208;-64
2022/10/19 09:03:57;;;;;;;15.50;6.93;;;23.00;1.00;;;;;;5024805;28;20846;-66
2022/10/19 09:06:36;;;;;;;12.57;6.75;;;22.00;1.00;;;;;;5022453;28;20207;-63
2022/10/19 09:09:04;;;;;;;9.82;6.40;;;25.20;1.00;;;;;;5036326;28;20211;-63
2022/10/19 09:11:41;;;;;;;13.50;7.25;;;25.20;1.00;;;;;;5036796;28;20550;-65
2022/10/19 09:14:24;;;;;;;10.10;6.10;;;26.00;1.00;;;;;;5037726;28;20295;-64
2022/10/19 09:16:51;;;;;;;9.50;5.47;;;24.40;1.00;;;;;;5039120;28;20194;-63
2022/10/19 09:19:24;;;;;;;12.45;5.47;;;22.80;1.00;;;;;;5020405;28;20203;-64
2022/10/19 09:22:14;;;;;;;9.57;4.93;;;23.10;1.00;;;;;;5032959;28;20753;-63
2022/10/19 09:24:53;;;;;;;7.63;4.57;;;25.50;1.00;;;;;;5029025;28;20290;-63
2022/10/19 09:27:23;;;;;;;9.82;4.45;;;28.00;1.00;;;;;;5011131;28;20294;-65
2022/10/19 09:30:00;;;;;;;6.90;4.20;;;29.10;1.00;;;;;;5009496;28;20267;-62
2022/10/19 09:32:37;;;;;;;10.25;4.68;;;27.00;1.00;;;;;;5040037;28;20190;-62
2022/10/19 09:35:26;;;;;;;8.40;4.32;;;26.70;1.00;;;;;;5023361;28;20891;-65
2022/10/19 09:37:54;;;;;;;7.85;4.53;;;26.00;1.00;;;;;;5028564;28;20194;-63
2022/10/19 09:40:24;;;;;;;7.85;3.78;;;26.10;1.00;;;;;;5035345;28;20188;-65
2022/10/19 09:43:38;;;;;;;4.93;3.95;;;25.60;1.00;;;;;;5006064;28;21259;-63
2022/10/19 09:45:45;;;;;;;6.35;3.75;;;27.60;1.00;;;;;;5016732;28;20220;-63
2022/10/19 09:48:22;;;;;;;7.55;4.10;;;26.50;1.00;;;;;;5022331;28;20199;-63
2022/10/19 09:51:00;;;;;;;10.50;4.00;;;25.70;1.00;;;;;;5021594;28;20290;-64
2022/10/19 09:53:28;;;;;;;4.85;2.55;;;26.50;1.00;;;;;;5017928;28;20195;-65
2022/10/19 09:56:07;;;;;;;7.00;2.67;;;28.10;1.00;;;;;;5025359;28;20209;-64
2022/10/19 09:58:34;;;;;;;4.55;2.35;;;26.90;1.00;;;;;;5037981;28;20211;-63
2022/10/19 10:01:02;;;;;;;3.83;2.28;;;24.80;1.00;;;;;;5040169;28;20288;-63
2022/10/19 10:03:39;;;;;;;7.20;2.70;;;25.60;1.00;;;;;;5038380;28;20656;-64
2022/10/19 10:06:11;;;;;;;6.45;2.40;;;25.50;1.00;;;;;;5027169;28;20231;-63
2022/10/19 10:08:58;;;;;;;2.30;1.70;;;26.40;1.00;;;;;;5038617;28;20299;-63
2022/10/19 10:11:39;;;;;;;4.88;1.92;;;26.10;1.00;;;;;;5022011;28;20249;-63
2022/10/19 10:14:34;;;;;;;6.35;2.22;;;24.80;1.00;;;;;;5036505;28;20642;-65
2022/10/19 10:17:24;;;;;;;5.45;2.00;;;22.40;1.00;;;;;;5014187;28;20632;-66
2022/10/19 10:20:16;;;;;;;8.27;2.10;;;21.40;1.00;;;;;;5037675;28;20185;-65
2022/10/19 10:22:56;;;;;;;6.07;2.13;;;22.30;1.00;;;;;;5035341;28;20202;-65
2022/10/19 10:25:29;;;;;;;3.65;1.60;;;22.30;1.00;;;;;;5035376;28;20204;-64
2022/10/19 10:28:18;;;;;;;7.18;1.50;;;22.80;1.00;;;;;;5035515;28;20188;-66
2022/10/19 10:30:47;;;;;;;3.42;1.35;;;23.40;1.00;;;;;;5021109;28;20232;-65
2022/10/19 10:33:17;;;;;;;3.22;1.40;;;23.00;1.00;;;;;;5036693;28;20286;-67
2022/10/19 10:36:08;;;;;;;3.92;1.80;;;23.80;1.00;;;;;;5039309;28;20682;-66
2022/10/19 10:38:45;;;;;;;3.75;1.88;;;21.90;1.00;;;;;;5039363;28;20295;-65
2022/10/19 10:41:21;;;;;;;4.40;1.70;;;23.60;1.00;;;;;;5038704;28;20192;-67
2022/10/19 10:44:05;;;;;;;6.03;2.00;;;23.50;1.00;;;;;;5021160;28;20258;-65
2022/10/19 10:46:36;;;;;;;5.20;1.85;;;22.20;1.00;;;;;;5038868;28;20199;-70
2022/10/19 10:49:15;;;;;;;3.92;1.90;;;22.20;1.00;;;;;;5036770;28;20282;-71
2022/10/19 10:51:46;;;;;;;5.30;2.10;;;20.60;1.00;;;;;;5022536;28;20498;-71
2022/10/19 10:54:18;;;;;;;4.88;2.20;;;19.50;1.00;;;;;;5041363;28;20653;-71
2022/10/19 10:57:11;;;;;;;5.53;2.13;;;19.40;1.00;;;;;;5028448;28;20199;-70
2022/10/19 10:59:47;;;;;;;7.68;2.95;;;18.70;1.00;;;;;;5028509;28;20187;-70
2022/10/19 11:02:55;;;;;;;5.40;2.63;;;17.40;1.00;;;;;;5039749;28;20291;-70
2022/10/19 11:05:30;;;;;;;5.88;2.50;;;16.90;1.00;;;;;;5024718;28;20330;-71
2022/10/19 11:08:12;;;;;;;6.00;2.78;;;19.70;1.00;;;;;;5038085;28;20203;-70
2022/10/19 11:10:43;;;;;;;3.83;1.90;;;20.80;1.00;;;;;;5023231;28;20208;-71
2022/10/19 11:13:42;;;;;;;6.35;2.83;;;21.50;1.00;;;;;;5028733;28;20196;-70
2022/10/19 11:16:15;;;;;;;9.25;2.65;;;22.00;1.00;;;;;;5021560;28;20269;-69
2022/10/19 11:18:50;;;;;;;5.30;2.13;;;21.30;1.00;;;;;;5028915;28;20218;-69
2022/10/19 11:21:53;;;;;;;2.78;1.80;;;21.10;1.00;;;;;;5041277;28;20306;-70
2022/10/19 11:24:34;;;;;;;2.90;1.67;;;20.20;1.00;;;;;;4962830;28;20241;-70
2022/10/19 11:27:04;;;;;;;4.60;1.58;;;20.70;1.00;;;;;;5013563;28;20235;-71
2022/10/19 11:29:55;;;;;;;5.18;1.85;;;20.30;1.00;;;;;;5028461;28;20866;-71
2022/10/19 11:32:25;;;;;;;4.43;1.80;;;20.40;1.00;;;;;;5039248;28;20206;-71
2022/10/19 11:35:04;;;;;;;8.15;1.55;;;21.50;1.00;;;;;;5027281;28;20192;-71
2022/10/19 11:37:51;;;;;;;5.63;1.70;;;20.90;1.00;;;;;;5035534;28;20216;-70
2022/10/19 11:40:59;;;;;;;5.00;1.58;;;20.30;1.00;;;;;;5019982;28;20188;-69
2022/10/19 11:44:11;;;;;;;5.78;1.48;;;19.70;1.00;;;;;;5007932;28;20205;-69
2022/10/19 11:46:47;;;;;;;3.80;1.20;;;19.80;1.00;;;;;;5011637;28;20605;-70
2022/10/19 11:49:38;;;;;;;3.60;1.30;;;20.60;1.00;;;;;;4987354;28;20278;-69
2022/10/19 11:52:16;;;;;;;4.28;1.33;;;19.90;1.00;;;;;;5009832;28;20300;-68
2022/10/19 11:55:11;;;;;;;5.38;1.80;;;19.50;1.00;;;;;;5009413;28;20202;-70
2022/10/19 11:58:05;;;;;;;5.38;1.70;;;18.00;1.00;;;;;;5003166;28;20209;-69
2022/10/19 12:00:43;;;;;;;2.47;1.30;;;18.60;1.00;;;;;;5001075;28;20347;-68
2022/10/19 12:03:47;;;;;;;2.15;0.95;;;18.40;1.00;;;;;;5000798;28;20250;-68
2022/10/19 12:06:33;;;;;;;2.67;1.30;;;18.60;1.00;;;;;;5001479;28;20234;-70
2022/10/19 12:09:18;;;;;;;1.55;1.10;;;18.10;1.00;;;;;;5016914;28;20289;-71
2022/10/19 12:12:10;;;;;;;4.88;1.40;;;18.00;1.00;;;;;;4993479;28;20223;-70
2022/10/19 12:14:40;;;;;;;5.05;1.58;;;18.50;1.00;;;;;;5004268;28;20246;-70
2022/10/19 12:17:19;;;;;;;3.28;1.25;;;18.20;1.00;;;;;;5012110;28;20220;-70
2022/10/19 12:19:51;;;;;;;8.32;1.83;;;18.40;1.00;;;;;;5019682;28;20611;-70
2022/10/19 12:22:27;;;;;;;5.05;1.75;;;18.30;1.00;;;;;;4989465;28;20193;-71
2022/10/19 12:24:57;;;;;;;5.50;1.42;;;18.20;1.00;;;;;;5009056;28;20187;-71
2022/10/19 12:27:37;;;;;;;4.13;1.05;;;18.10;1.00;;;;;;5019292;28;20197;-71
2022/10/19 12:30:21;;;;;;;4.55;1.27;;;17.90;1.00;;;;;;5018240;28;20725;-70
2022/10/19 12:33:13;;;;;;;4.78;1.30;;;17.90;1.00;;;;;;5019329;28;20219;-70
2022/10/19 12:35:46;;;;;;;9.75;2.28;;;17.70;1.00;;;;;;5008142;28;20220;-69
2022/10/19 12:38:46;;;;;;;3.72;1.63;;;17.30;1.00;;;;;;5004043;28;20252;-72
2022/10/19 12:41:38;;;;;;;3.53;1.60;;;17.30;1.00;;;;;;5024869;28;20402;-71
2022/10/19 12:44:12;;;;;;;4.68;1.52;;;17.20;1.00;;;;;;5038067;28;20816;-71
2022/10/19 12:46:52;;;;;;;7.18;1.90;;;17.10;1.00;;;;;;5034750;28;20198;-70
2022/10/19 12:49:37;;;;;;;4.88;1.38;;;17.10;1.00;;;;;;5019955;28;20196;-71
2022/10/19 12:52:06;;;;;;;5.40;1.33;;;17.20;1.00;;;;;;5037986;28;20211;-70
2022/10/19 12:54:36;;;;;;;2.47;1.15;;;17.00;1.00;;;;;;5037490;28;20968;-69
2022/10/19 12:57:37;;;;;;;3.53;1.20;;;16.70;1.00;;;;;;5017774;28;20196;-71
2022/10/19 13:00:21;;;;;;;3.78;1.40;;;16.30;1.00;;;;;;5025716;28;20211;-71
2022/10/19 13:03:02;;;;;;;5.18;1.40;;;16.30;1.00;;;;;;5020788;28;20208;-72
2022/10/19 13:05:30;;;;;;;8.77;1.65;;;15.90;1.00;;;;;;5037834;28;20673;-70
2022/10/19 13:08:01;;;;;;;2.33;0.98;;;15.90;1.00;;;;;;5027642;28;20557;-71
2022/10/19 13:10:30;;;;;;;2.88;1.40;;;15.70;1.00;;;;;;5036635;28;20204;-71
2022/10/19 13:12:57;;;;;;;2.42;1.27;;;15.80;1.00;;;;;;5019317;28;20201;-71
2022/10/19 13:15:33;;;;;;;5.22;1.13;;;16.10;1.00;;;;;;5018123;28;20322;-71
2022/10/19 13:18:42;;;;;;;4.40;1.60;;;15.60;1.00;;;;;;5021198;28;20242;-70
2022/10/19 13:21:09;;;;;;;6.05;1.25;;;15.60;1.00;;;;;;5038396;28;20450;-71
2022/10/19 13:23:38;;;;;;;4.25;1.60;;;15.70;1.00;;;;;;5013071;28;20202;-69
2022/10/19 13:26:31;;;;;;;2.53;1.50;;;15.60;1.00;;;;;;5007412;28;20542;-70
2022/10/19 13:28:59;;;;;;;2.85;1.40;;;15.60;1.00;;;;;;5019722;28;20219;-70
2022/10/19 13:31:32;;;;;;;4.38;1.70;;;15.50;1.00;;;;;;5020542;28;20220;-71